Ana Sayfa
METAR-TAF:

METAR-TAF

Havaalanları :

Hillsdale Municipal Airport

Hillsdale, Michigan, Amerika Birleşik Devletleri

Enlem: 41-55-17N, Boylam: 084-35-09W, yükseklik: 360 m

Güncel hava durumu gözlemi

Rapor saat 18:56 UTC de 22 dakika önce yapıldı.
Rüzgar kuzey/kuzeydoğudan 8 kt
Sıcaklık 5°C
Nem 81%
Basınç 1014 hPa
Görüş mesafesi: 16.1 km
1900 ft yükseklikte çok bulutlu

METAR: KJYM 311856Z AUTO 03008KT 10SM OVC019 05/02 A2993 RMK AO2 T00500019

Saat: 15:18 (19:18 UTC)


TAF: eksik

4.000'den fazla havaalanı için hava durumu gözlemleri ve tahminleri (METAR ve TAF raporları).

Kullanılabilir istasyonlar harita üzerinde sarı ve kırmızı noktalarla gösterilir.

İstasyonun adını görmek için fareyi noktanın üzerinde gezdirin.

Sonrasında hava gözlem ve tahminlerini görmek için tıklayın.

Haritayı değiştirmek için: yaklaştırmak için siyah artı işaretli yeşil düğmeye ve uzaklaştırmak için de eksi işaretli düğmeye hızla tıklayın; bitişik haritalar için yeşil okları kullanın.


METAR-TAF: